createdAt,value
2022-08-18T00:01:11.109Z,98965.89
2022-08-18T00:03:56.825Z,98968.29
2022-08-18T00:06:24.574Z,98963.77
2022-08-18T00:08:56.148Z,98960.04
2022-08-18T00:11:23.755Z,98956.97
2022-08-18T00:13:50.605Z,98956.25
2022-08-18T00:16:17.431Z,98954.46
2022-08-18T00:18:44.200Z,98955.48
2022-08-18T00:21:10.944Z,98958.63
2022-08-18T00:23:38.808Z,98962.08
2022-08-18T00:26:05.873Z,98964.27
2022-08-18T00:28:32.643Z,98965.17
2022-08-18T00:30:59.429Z,98969.38
2022-08-18T00:33:26.409Z,98967.55
2022-08-18T00:35:53.409Z,98961.31
2022-08-18T00:38:24.367Z,98955.06
2022-08-18T00:40:52.509Z,98955.68
2022-08-18T00:43:27.925Z,98958.43
2022-08-18T00:45:54.661Z,98954.52
2022-08-18T00:48:23.848Z,98955.90
2022-08-18T00:51:03.176Z,98956.74
2022-08-18T00:53:45.866Z,98957.33
2022-08-18T00:56:16.703Z,98957.85
2022-08-18T00:58:49.512Z,98953.20
2022-08-18T01:01:16.661Z,98954.73
2022-08-18T01:03:43.826Z,98956.89
2022-08-18T01:06:17.754Z,98952.23
2022-08-18T01:08:44.555Z,98956.55
2022-08-18T01:11:11.253Z,98955.80
2022-08-18T01:13:39.500Z,98951.13
2022-08-18T01:16:26.436Z,98947.89
2022-08-18T01:19:11.912Z,98948.06
2022-08-18T01:21:53.578Z,98951.70
2022-08-18T01:24:45.564Z,98952.77
2022-08-18T01:27:18.612Z,98960.20
2022-08-18T01:29:46.879Z,98957.05
2022-08-18T01:32:19.735Z,98954.93
2022-08-18T01:34:48.140Z,98958.31
2022-08-18T01:37:16.851Z,98957.86
2022-08-18T01:41:11.010Z,98953.89
2022-08-18T01:42:30.981Z,98958.98
2022-08-18T01:44:57.689Z,98957.11
2022-08-18T01:47:24.529Z,98963.49
2022-08-18T01:49:53.429Z,98965.19
2022-08-18T01:52:21.188Z,98964.17
2022-08-18T01:54:48.526Z,98965.45
2022-08-18T01:57:16.268Z,98969.80
2022-08-18T01:59:43.158Z,98971.46
2022-08-18T02:02:18.193Z,98975.59
2022-08-18T02:04:45.345Z,98974.23
2022-08-18T02:07:12.747Z,98971.95
2022-08-18T02:09:39.956Z,98975.20
2022-08-18T02:12:07.398Z,98974.66
2022-08-18T02:14:35.601Z,98975.73
2022-08-18T02:17:03.220Z,98975.67
2022-08-18T02:19:38.534Z,98976.36
2022-08-18T02:22:05.637Z,98974.59
2022-08-18T02:24:32.386Z,98974.00
2022-08-18T02:26:59.141Z,98969.20
2022-08-18T02:29:25.892Z,98969.16
2022-08-18T02:31:52.585Z,98967.58
2022-08-18T02:34:19.332Z,98970.08
2022-08-18T02:36:46.068Z,98970.14
2022-08-18T02:39:12.898Z,98969.89
2022-08-18T02:41:39.629Z,98970.30
2022-08-18T02:44:07.628Z,98969.39
2022-08-18T02:46:34.639Z,98972.52
2022-08-18T02:49:01.578Z,98973.28
2022-08-18T02:51:28.581Z,98971.91
2022-08-18T02:53:55.394Z,98975.02
2022-08-18T02:56:40.784Z,98972.02
2022-08-18T02:59:10.607Z,98975.72
2022-08-18T03:01:39.950Z,98977.63
2022-08-18T03:04:07.878Z,98980.77
2022-08-18T03:06:36.584Z,98978.84
2022-08-18T03:09:04.756Z,98980.48
2022-08-18T03:11:31.920Z,98979.06
2022-08-18T03:13:59.623Z,98977.15
2022-08-18T03:16:26.535Z,98979.36
2022-08-18T03:18:53.663Z,98977.83
2022-08-18T03:21:23.397Z,98981.60
2022-08-18T03:24:00.294Z,98982.84
2022-08-18T03:26:28.800Z,98984.45
2022-08-18T03:28:55.594Z,98987.73
2022-08-18T03:31:23.594Z,98991.39
2022-08-18T03:33:51.600Z,98994.05
2022-08-18T03:36:21.028Z,98995.52
2022-08-18T03:38:50.994Z,98995.52
2022-08-18T03:41:43.421Z,98997.63
2022-08-18T03:44:10.706Z,99000.44
2022-08-18T03:46:37.499Z,99003.45
2022-08-18T03:49:04.266Z,99002.83
2022-08-18T03:51:34.394Z,99004.64
2022-08-18T03:54:01.928Z,99002.67
2022-08-18T03:56:33.684Z,99004.83
2022-08-18T03:59:03.032Z,99000.55
2022-08-18T04:01:32.946Z,98999.14
2022-08-18T04:04:02.243Z,99006.38
2022-08-18T04:06:45.825Z,99006.75
2022-08-18T04:09:14.212Z,99010.84
2022-08-18T04:11:44.466Z,99005.32
2022-08-18T04:14:15.824Z,99001.75
2022-08-18T04:16:42.699Z,98999.55
2022-08-18T04:19:10.081Z,98995.70
2022-08-18T04:21:38.421Z,98993.92
2022-08-18T04:24:05.690Z,98995.09
2022-08-18T04:26:33.257Z,98997.95
2022-08-18T04:29:02.817Z,99000.20
2022-08-18T04:31:31.047Z,99002.56
2022-08-18T04:33:58.570Z,99005.61
2022-08-18T04:36:25.431Z,99011.27
2022-08-18T04:38:52.187Z,99008.51
2022-08-18T04:41:27.490Z,99014.55
2022-08-18T04:43:58.325Z,99017.82
2022-08-18T04:46:26.382Z,99016.98
2022-08-18T04:48:58.597Z,99020.05
2022-08-18T04:52:38.459Z,99023.17
2022-08-18T04:54:13.273Z,99022.10
2022-08-18T04:56:40.082Z,99024.89
2022-08-18T04:59:12.096Z,99024.62
2022-08-18T05:01:42.214Z,99022.01
2022-08-18T05:04:09.107Z,99022.41
2022-08-18T05:06:36.073Z,99020.77
2022-08-18T05:09:04.918Z,99020.55
2022-08-18T05:11:33.638Z,99024.60
2022-08-18T05:14:01.335Z,99026.09
2022-08-18T05:19:42.306Z,99020.48
2022-08-18T05:22:11.448Z,99021.83
2022-08-18T05:24:41.210Z,99021.02
2022-08-18T05:27:08.007Z,99022.77
2022-08-18T05:29:45.929Z,99017.60
2022-08-18T05:32:38.274Z,99014.50
2022-08-18T05:35:10.169Z,99016.73
2022-08-18T05:37:47.492Z,99017.87
2022-08-18T05:40:14.572Z,99015.90
2022-08-18T05:42:41.369Z,99020.66
2022-08-18T05:45:12.952Z,99020.91
2022-08-18T05:47:39.728Z,99019.80
2022-08-18T05:50:09.120Z,99019.53
2022-08-18T05:52:51.446Z,99019.63
2022-08-18T05:55:49.481Z,99021.72
2022-08-18T05:58:19.100Z,99027.41
2022-08-18T06:01:02.487Z,99026.92
2022-08-18T06:03:45.137Z,99022.73
2022-08-18T06:06:21.044Z,99026.20
2022-08-18T06:08:58.652Z,99022.67
2022-08-18T06:11:25.967Z,99023.20
2022-08-18T06:13:59.634Z,99029.67
2022-08-18T06:16:48.218Z,99029.71
2022-08-18T06:19:40.860Z,99033.17
2022-08-18T06:22:25.987Z,99034.48
2022-08-18T06:25:06.129Z,99035.46
2022-08-18T06:27:55.702Z,99034.45
2022-08-18T06:30:56.971Z,99037.36
2022-08-18T06:33:50.289Z,99040.52
2022-08-18T06:36:50.251Z,99044.14
2022-08-18T06:39:30.920Z,99040.35
2022-08-18T06:41:57.856Z,99028.97
2022-08-18T06:44:34.371Z,99031.83
2022-08-18T06:47:19.905Z,99031.77
2022-08-18T06:49:54.888Z,99033.19
2022-08-18T06:52:22.707Z,99036.23
2022-08-18T06:54:51.382Z,99042.27
2022-08-18T06:57:25.167Z,99044.50
2022-08-18T06:59:56.840Z,99044.88
2022-08-18T07:02:52.830Z,99046.01
2022-08-18T07:05:29.425Z,99038.06
2022-08-18T07:08:15.924Z,99035.43
2022-08-18T07:10:50.248Z,99036.82
2022-08-18T07:13:27.215Z,99041.71
2022-08-18T07:15:55.739Z,99034.72
2022-08-18T07:18:25.174Z,99033.33
2022-08-18T07:21:01.815Z,99035.85
2022-08-18T07:23:30.346Z,99039.30
2022-08-18T07:26:11.043Z,99043.28
2022-08-18T07:28:45.007Z,99044.64
2022-08-18T07:31:17.308Z,99049.33
2022-08-18T07:33:48.300Z,99047.67
2022-08-18T07:36:15.035Z,99045.91
2022-08-18T07:38:48.705Z,99041.74
2022-08-18T07:41:20.561Z,99040.12
2022-08-18T07:43:53.488Z,99037.74
2022-08-18T07:46:31.790Z,99038.86
2022-08-18T07:49:01.378Z,99044.44
2022-08-18T07:51:47.668Z,99046.45
2022-08-18T07:54:48.935Z,99046.77
2022-08-18T07:57:25.255Z,99050.54
2022-08-18T08:00:05.155Z,99050.98
2022-08-18T08:02:50.084Z,99048.72
2022-08-18T08:05:35.834Z,99049.98
2022-08-18T08:08:11.675Z,99046.77
2022-08-18T08:10:45.938Z,99044.59
2022-08-18T08:13:36.865Z,99039.69
2022-08-18T08:16:44.387Z,99034.80
2022-08-18T08:20:08.586Z,99039.23
2022-08-18T08:23:01.065Z,99031.53
2022-08-18T08:25:47.138Z,99033.37
2022-08-18T08:28:16.818Z,99034.01
2022-08-18T08:31:37.963Z,99034.46
2022-08-18T08:34:20.127Z,99037.02
2022-08-18T08:36:47.555Z,99040.98
2022-08-18T08:39:21.443Z,99044.12
2022-08-18T08:42:30.658Z,99054.67
2022-08-18T08:45:28.122Z,99053.71
2022-08-18T08:48:09.292Z,99051.45
2022-08-18T08:50:43.064Z,99055.23
2022-08-18T08:53:38.463Z,99055.48
2022-08-18T08:56:09.819Z,99058.55
2022-08-18T08:58:54.733Z,99056.81
2022-08-18T09:01:27.983Z,99061.50
2022-08-18T09:04:27.047Z,99064.42
2022-08-18T09:07:05.517Z,99060.84
2022-08-18T09:09:56.970Z,99061.27
2022-08-18T09:12:41.348Z,99059.02
2022-08-18T09:15:15.250Z,99058.29
2022-08-18T09:18:15.678Z,99057.28
2022-08-18T09:21:12.804Z,99060.11
2022-08-18T09:23:41.396Z,99050.69
2022-08-18T09:26:39.719Z,99052.39
2022-08-18T09:29:27.364Z,99050.73
2022-08-18T09:32:18.768Z,99047.52
2022-08-18T09:34:48.250Z,99048.94
2022-08-18T09:37:24.503Z,99054.38
2022-08-18T09:40:14.407Z,99056.41
2022-08-18T09:42:59.829Z,99061.77
2022-08-18T09:45:33.617Z,99056.85
2022-08-18T09:48:03.047Z,99056.02
2022-08-18T09:50:36.067Z,99063.02
2022-08-18T09:53:52.591Z,99055.89
2022-08-18T09:56:58.092Z,99055.20
2022-08-18T09:59:34.592Z,99054.70
2022-08-18T10:02:28.083Z,99056.29
2022-08-18T10:05:20.095Z,99054.64
2022-08-18T10:07:50.595Z,99054.38
2022-08-18T10:11:00.651Z,99054.55
2022-08-18T10:13:38.654Z,99049.96
2022-08-18T10:16:14.324Z,99049.70
2022-08-18T10:18:46.261Z,99046.61
2022-08-18T10:21:18.867Z,99042.18
2022-08-18T10:24:32.293Z,99047.20
2022-08-18T10:27:02.620Z,99047.54
2022-08-18T10:29:31.724Z,99051.54
2022-08-18T10:32:01.437Z,99048.88
2022-08-18T10:34:28.171Z,99050.60
2022-08-18T10:36:59.079Z,99054.17
2022-08-18T10:39:41.231Z,99056.77
2022-08-18T10:42:30.983Z,99057.70
2022-08-18T10:45:33.450Z,99057.86
2022-08-18T10:48:16.776Z,99059.62
2022-08-18T10:50:51.339Z,99065.91
2022-08-18T10:53:44.354Z,99065.45
2022-08-18T10:56:11.717Z,99058.05
2022-08-18T10:58:42.082Z,99058.60
2022-08-18T11:01:14.946Z,99055.84
2022-08-18T11:04:01.006Z,99056.83
2022-08-18T11:06:43.916Z,99057.54
2022-08-18T11:09:11.651Z,99060.59
2022-08-18T11:14:42.829Z,99061.63
2022-08-18T11:17:36.285Z,99054.92
2022-08-18T11:20:09.359Z,99051.84
2022-08-18T11:22:36.517Z,99047.35
2022-08-18T11:25:19.073Z,99046.91
2022-08-18T11:27:47.495Z,99049.66
2022-08-18T11:30:15.572Z,99045.91
2022-08-18T11:32:55.200Z,99052.73
2022-08-18T11:35:29.793Z,99047.45
2022-08-18T11:38:00.064Z,99045.73
2022-08-18T11:43:41.700Z,99043.63
2022-08-18T11:46:29.999Z,99046.67
2022-08-18T11:49:13.742Z,99045.67
2022-08-18T11:51:54.638Z,99039.70
2022-08-18T11:54:23.481Z,99042.09
2022-08-18T11:56:51.401Z,99037.34
2022-08-18T11:59:52.702Z,99038.77
2022-08-18T12:02:19.209Z,99041.09
2022-08-18T12:04:50.464Z,99041.71
2022-08-18T12:07:20.316Z,99034.98
2022-08-18T12:12:44.609Z,99034.69
2022-08-18T12:15:17.440Z,99033.33
2022-08-18T12:17:52.474Z,99032.48
2022-08-18T12:20:20.231Z,99034.74
2022-08-18T12:22:47.142Z,99034.70
2022-08-18T12:25:16.366Z,99039.23
2022-08-18T12:27:51.876Z,99040.15
2022-08-18T12:30:19.204Z,99036.15
2022-08-18T12:33:04.857Z,99035.85
2022-08-18T12:35:32.910Z,99029.61
2022-08-18T12:38:03.530Z,99025.13
2022-08-18T12:40:40.732Z,99021.29
2022-08-18T12:43:07.635Z,99016.70
2022-08-18T12:45:34.666Z,99019.46
2022-08-18T12:48:04.698Z,99016.13
2022-08-18T12:50:36.204Z,99018.30
2022-08-18T12:53:04.684Z,99020.80
2022-08-18T12:55:34.086Z,99024.51
2022-08-18T12:58:01.930Z,99017.63
2022-08-18T13:03:15.386Z,99021.45
2022-08-18T13:05:42.787Z,99024.36
2022-08-18T13:08:30.060Z,99015.05
2022-08-18T13:11:14.640Z,99017.06
2022-08-18T13:13:42.761Z,99010.27
2022-08-18T13:16:09.759Z,99012.85
2022-08-18T13:18:43.361Z,99012.55
2022-08-18T13:21:12.392Z,99011.05
2022-08-18T13:23:39.836Z,99015.73
2022-08-18T13:26:09.666Z,99013.13
2022-08-18T13:28:51.565Z,99011.42
2022-08-18T13:31:23.661Z,99009.90
2022-08-18T13:33:56.898Z,99005.20
2022-08-18T13:36:26.356Z,99012.42
2022-08-18T13:38:55.749Z,99014.20
2022-08-18T13:43:51.443Z,99015.67
2022-08-18T13:46:19.754Z,99014.73
2022-08-18T13:48:59.954Z,99015.55
2022-08-18T13:51:27.962Z,99016.04
2022-08-18T13:54:17.756Z,99017.48
2022-08-18T13:56:42.939Z,99017.02
2022-08-18T13:59:20.712Z,99019.27
2022-08-18T14:01:51.595Z,99019.34
2022-08-18T14:04:20.437Z,99028.47
2022-08-18T14:06:56.436Z,99026.54
2022-08-18T14:09:36.033Z,99034.62
2022-08-18T14:12:15.830Z,99038.60
2022-08-18T14:14:52.056Z,99041.61
2022-08-18T14:17:20.216Z,99039.85
2022-08-18T14:20:10.325Z,99046.73
2022-08-18T14:23:00.183Z,99048.02
2022-08-18T14:25:46.090Z,99054.70
2022-08-18T14:28:12.876Z,99056.55
2022-08-18T14:30:39.653Z,99055.98
2022-08-18T14:33:07.808Z,99058.78
2022-08-18T14:36:06.055Z,99061.96
2022-08-18T14:38:25.420Z,99054.59
2022-08-18T14:40:52.172Z,99056.67
2022-08-18T14:43:22.011Z,99062.17
2022-08-18T14:45:53.722Z,99059.69
2022-08-18T14:48:27.485Z,99061.22
2022-08-18T14:50:55.592Z,99062.33
2022-08-18T14:53:23.865Z,99067.52
2022-08-18T14:55:52.506Z,99070.30
2022-08-18T14:58:20.748Z,99069.30
2022-08-18T15:00:53.616Z,99071.94
2022-08-18T15:03:30.764Z,99072.45
2022-08-18T15:05:58.546Z,99075.52
2022-08-18T15:08:26.853Z,99078.55
2022-08-18T15:10:54.130Z,99081.31
2022-08-18T15:13:20.915Z,99082.89
2022-08-18T15:15:53.589Z,99085.99
2022-08-18T15:18:22.491Z,99084.48
2022-08-18T15:21:10.322Z,99087.91
2022-08-18T15:24:05.372Z,99092.36
2022-08-18T15:26:46.374Z,99091.63
2022-08-18T15:29:18.569Z,99090.57
2022-08-18T15:31:50.785Z,99090.15
2022-08-18T15:34:20.745Z,99090.52
2022-08-18T15:36:47.854Z,99092.26
2022-08-18T15:39:14.802Z,99090.79
2022-08-18T15:41:45.547Z,99089.88
2022-08-18T15:44:14.444Z,99094.31
2022-08-18T15:46:41.294Z,99087.70
2022-08-18T15:49:15.056Z,99088.14
2022-08-18T15:51:42.495Z,99085.80
2022-08-18T15:54:12.341Z,99088.49
2022-08-18T15:56:43.261Z,99089.89
2022-08-18T15:59:10.868Z,99092.66
2022-08-18T16:01:42.594Z,99093.91
2022-08-18T16:04:10.272Z,99090.98
2022-08-18T16:06:37.607Z,99089.36
2022-08-18T16:09:05.934Z,99090.05
2022-08-18T16:11:33.080Z,99091.05
2022-08-18T16:14:00.030Z,99089.05
2022-08-18T16:16:35.831Z,99089.40
2022-08-18T16:19:04.686Z,99088.14
2022-08-18T16:21:31.396Z,99089.59
2022-08-18T16:23:58.352Z,99093.29
2022-08-18T16:26:25.128Z,99092.54
2022-08-18T16:28:52.416Z,99095.60
2022-08-18T16:31:24.795Z,99097.02
2022-08-18T16:33:55.443Z,99100.71
2022-08-18T16:36:25.385Z,99099.79
2022-08-18T16:38:53.359Z,99102.37
2022-08-18T16:41:20.425Z,99100.40
2022-08-18T16:43:47.489Z,99103.89
2022-08-18T16:46:21.372Z,99106.40
2022-08-18T16:48:49.589Z,99106.16
2022-08-18T16:51:17.720Z,99106.34
2022-08-18T16:53:46.277Z,99111.63
2022-08-18T16:56:17.066Z,99117.67
2022-08-18T16:59:02.504Z,99114.59
2022-08-18T17:01:50.765Z,99115.52
2022-08-18T17:04:20.602Z,99118.87
2022-08-18T17:06:48.002Z,99122.93
2022-08-18T17:09:15.531Z,99127.17
2022-08-18T17:11:51.680Z,99127.81
2022-08-18T17:14:20.821Z,99129.07
2022-08-18T17:16:49.044Z,99127.96
2022-08-18T17:19:15.882Z,99125.65
2022-08-18T17:21:43.129Z,99129.17
2022-08-18T17:24:11.337Z,99130.61
2022-08-18T17:26:56.667Z,99133.62
2022-08-18T17:29:48.058Z,99134.16
2022-08-18T17:32:24.677Z,99131.89
2022-08-18T17:37:12.334Z,99132.02
2022-08-18T17:39:43.317Z,99137.95
2022-08-18T17:42:29.264Z,99146.56
2022-08-18T17:45:05.111Z,99145.68
2022-08-18T17:47:38.511Z,99147.11
2022-08-18T17:50:28.679Z,99149.27
2022-08-18T17:53:00.548Z,99146.25
2022-08-18T17:55:30.431Z,99148.63
2022-08-18T17:58:06.870Z,99149.02
2022-08-18T18:00:33.635Z,99148.08
2022-08-18T18:03:00.830Z,99145.13
2022-08-18T18:05:32.847Z,99149.48
2022-08-18T18:07:59.968Z,99145.82
2022-08-18T18:10:27.538Z,99149.89
2022-08-18T18:13:11.621Z,99150.21
2022-08-18T18:15:40.594Z,99145.83
2022-08-18T18:18:41.802Z,99150.52
2022-08-18T18:21:14.537Z,99154.91
2022-08-18T18:23:43.463Z,99149.68
2022-08-18T18:26:34.878Z,99145.71
2022-08-18T18:29:12.654Z,99147.70
2022-08-18T18:31:40.317Z,99141.89
2022-08-18T18:34:23.237Z,99136.12
2022-08-18T18:36:54.613Z,99136.36
2022-08-18T18:39:23.682Z,99138.69
2022-08-18T18:42:14.954Z,99139.90
2022-08-18T18:44:49.503Z,99143.73
2022-08-18T18:47:24.961Z,99143.66
2022-08-18T18:49:59.472Z,99143.48
2022-08-18T18:52:41.264Z,99141.84
2022-08-18T18:55:18.203Z,99141.92
2022-08-18T18:58:07.019Z,99140.59
2022-08-18T19:00:54.078Z,99146.33
2022-08-18T19:03:22.711Z,99146.96
2022-08-18T19:05:50.842Z,99148.02
2022-08-18T19:08:33.208Z,99150.70
2022-08-18T19:11:07.333Z,99153.08
2022-08-18T19:13:39.466Z,99153.43
2022-08-18T19:16:24.162Z,99151.30
2022-08-18T19:18:59.759Z,99152.40
2022-08-18T19:22:03.993Z,99152.01
2022-08-18T19:24:27.668Z,99145.42
2022-08-18T19:26:59.952Z,99150.53
2022-08-18T19:29:30.184Z,99149.68
2022-08-18T19:32:06.229Z,99152.77
2022-08-18T19:34:44.889Z,99148.73
2022-08-18T19:37:50.129Z,99148.58
2022-08-18T19:40:18.120Z,99152.33
2022-08-18T19:42:54.242Z,99154.80
2022-08-18T19:45:35.655Z,99157.38
2022-08-18T19:48:07.608Z,99154.43
2022-08-18T19:50:47.606Z,99155.26
2022-08-18T19:53:39.407Z,99158.90
2022-08-18T19:56:43.473Z,99161.27
2022-08-18T19:59:27.422Z,99164.63
2022-08-18T20:02:21.086Z,99166.12
2022-08-18T20:04:57.308Z,99165.20
2022-08-18T20:08:01.128Z,99156.77
2022-08-18T20:11:08.135Z,99158.17
2022-08-18T20:13:43.036Z,99149.14
2022-08-18T20:16:14.981Z,99153.51
2022-08-18T20:18:42.956Z,99153.52
2022-08-18T20:21:46.434Z,99156.48
2022-08-18T20:24:38.430Z,99159.76
2022-08-18T20:27:36.729Z,99159.98
2022-08-18T20:30:26.740Z,99159.53
2022-08-18T20:33:10.281Z,99155.94
2022-08-18T20:36:03.943Z,99154.96
2022-08-18T20:38:35.748Z,99155.73
2022-08-18T20:41:27.716Z,99154.98
2022-08-18T20:44:01.848Z,99154.07
2022-08-18T20:46:43.683Z,99156.86
2022-08-18T20:49:28.756Z,99150.40
2022-08-18T20:52:04.232Z,99152.48
2022-08-18T20:54:58.380Z,99148.77
2022-08-18T20:57:26.908Z,99152.27
2022-08-18T21:00:14.218Z,99152.85
2022-08-18T21:02:41.278Z,99154.66
2022-08-18T21:05:16.614Z,99154.21
2022-08-18T21:08:10.402Z,99153.73
2022-08-18T21:10:37.199Z,99155.96
2022-08-18T21:13:04.636Z,99153.42
2022-08-18T21:15:38.156Z,99149.63
2022-08-18T21:18:21.151Z,99150.90
2022-08-18T21:20:49.168Z,99150.43
2022-08-18T21:23:24.909Z,99155.20
2022-08-18T21:25:53.952Z,99159.17
2022-08-18T21:28:21.663Z,99164.08
2022-08-18T21:31:42.283Z,99165.77
2022-08-18T21:33:52.552Z,99171.85
2022-08-18T21:36:20.195Z,99170.67
2022-08-18T21:39:05.773Z,99181.33
2022-08-18T21:41:33.667Z,99183.55
2022-08-18T21:44:07.687Z,99185.81
2022-08-18T21:46:34.421Z,99181.23
2022-08-18T21:49:02.579Z,99177.98
2022-08-18T21:51:31.288Z,99177.91
2022-08-18T21:53:58.883Z,99180.73
2022-08-18T21:56:30.991Z,99178.20
2022-08-18T21:59:18.539Z,99177.36
2022-08-18T22:01:53.505Z,99181.75
2022-08-18T22:04:28.858Z,99186.77
2022-08-18T22:07:34.191Z,99192.05
2022-08-18T22:10:37.146Z,99195.57
2022-08-18T22:13:22.455Z,99191.02
2022-08-18T22:15:49.987Z,99187.28
2022-08-18T22:18:16.686Z,99185.54
2022-08-18T22:20:59.377Z,99185.77
2022-08-18T22:23:51.335Z,99184.32
2022-08-18T22:26:22.533Z,99182.15
2022-08-18T22:29:01.367Z,99181.98
2022-08-18T22:31:33.305Z,99182.83
2022-08-18T22:34:07.293Z,99180.26
2022-08-18T22:36:38.881Z,99174.80
2022-08-18T22:39:08.569Z,99175.54
2022-08-18T22:41:35.789Z,99171.68
2022-08-18T22:44:05.566Z,99174.80
2022-08-18T22:46:33.123Z,99177.95
2022-08-18T22:49:00.232Z,99182.14
2022-08-18T22:51:28.087Z,99182.55
2022-08-18T22:53:55.828Z,99180.60
2022-08-18T22:56:34.283Z,99173.65
2022-08-18T22:59:05.864Z,99169.98
2022-08-18T23:01:45.048Z,99168.91
2022-08-18T23:04:11.865Z,99167.62
2022-08-18T23:06:38.580Z,99171.25
2022-08-18T23:09:05.440Z,99169.89
2022-08-18T23:11:32.207Z,99169.28
2022-08-18T23:14:04.870Z,99168.49
2022-08-18T23:16:32.441Z,99164.59
2022-08-18T23:19:03.619Z,99166.98
2022-08-18T23:21:34.923Z,99164.58
2022-08-18T23:24:06.335Z,99168.56
2022-08-18T23:26:34.266Z,99170.28
2022-08-18T23:29:01.535Z,99164.71
2022-08-18T23:31:30.257Z,99166.92
2022-08-18T23:33:57.587Z,99170.02
2022-08-18T23:36:24.476Z,99165.27
2022-08-18T23:38:51.194Z,99167.70
2022-08-18T23:41:17.954Z,99166.20
2022-08-18T23:43:48.265Z,99164.35
2022-08-18T23:46:22.064Z,99168.17
2022-08-18T23:48:50.707Z,99176.42
2022-08-18T23:51:29.388Z,99176.39
2022-08-18T23:53:58.950Z,99184.81
2022-08-18T23:56:27.990Z,99185.14
2022-08-18T23:58:56.376Z,99188.69
